Fouts Springs, California
Current Conditions -  °F | °C
As of 2:40 AM on Saturday 25 Oct 2014 (Local Time) from KUKI Reporting Station
Light Rain Light Rain  
Wind Chill: 59°   Ceiling: 1800
Heat Index: 59°   Visibility: 3mi
Dew Point: 56°   Wind: 14mph
Humidity: 90%   Direction: 150°SSE
Pressure: 29.81"   Gusts: 25mph
Location:  39.3318°N, 122.533°W
Report Text: KUKI 250940Z AUTO 15012G22KT 3SM -RA BR FEW009 BKN018 OVC023 15/13 A2981 RMK AO2 P0002 T01500133
Loading
Personal Weather Stations






























Interactive Weather Map
Tropical Storm Tracking
New forecast layout! Learn more

10-Day Weather Forecast

Advertisements
Track Severe Weather on mobile